createdAt,value
2018-10-18T00:00:44.932Z,13.27
2018-10-18T00:03:13.411Z,13.19
2018-10-18T00:05:41.820Z,13.14
2018-10-18T00:08:10.381Z,13.08
2018-10-18T00:10:38.659Z,13.00
2018-10-18T00:13:07.059Z,12.95
2018-10-18T00:15:35.445Z,12.92
2018-10-18T00:18:04.313Z,12.88
2018-10-18T00:20:33.958Z,12.79
2018-10-18T00:23:02.406Z,12.80
2018-10-18T00:25:30.797Z,12.81
2018-10-18T00:27:59.233Z,12.77
2018-10-18T00:30:27.638Z,12.81
2018-10-18T00:32:56.185Z,12.78
2018-10-18T00:35:24.628Z,12.81
2018-10-18T00:37:53.075Z,12.81
2018-10-18T00:40:21.477Z,12.75
2018-10-18T00:42:50.102Z,12.72
2018-10-18T00:45:18.659Z,12.70
2018-10-18T00:47:47.205Z,12.68
2018-10-18T00:50:15.694Z,12.65
2018-10-18T00:52:44.036Z,12.64
2018-10-18T00:55:12.603Z,12.63
2018-10-18T00:57:41.893Z,12.59
2018-10-18T01:00:11.468Z,12.57
2018-10-18T01:02:39.785Z,12.58
2018-10-18T01:05:08.302Z,12.58
2018-10-18T01:07:36.914Z,12.56
2018-10-18T01:10:05.408Z,12.54
2018-10-18T01:12:33.867Z,12.51
2018-10-18T01:15:02.441Z,12.49
2018-10-18T01:17:30.882Z,12.48
2018-10-18T01:19:59.310Z,12.47
2018-10-18T01:22:28.643Z,12.46
2018-10-18T01:24:57.064Z,12.43
2018-10-18T01:27:25.534Z,12.40
2018-10-18T01:29:53.961Z,12.37
2018-10-18T01:32:22.357Z,12.32
2018-10-18T01:34:50.828Z,12.34
2018-10-18T01:37:19.254Z,12.40
2018-10-18T01:39:47.840Z,12.42
2018-10-18T01:42:16.331Z,12.52
2018-10-18T01:44:52.318Z,12.56
2018-10-18T01:47:20.771Z,12.62
2018-10-18T01:49:49.294Z,12.69
2018-10-18T01:52:17.681Z,12.69
2018-10-18T01:54:46.286Z,12.77
2018-10-18T01:57:14.779Z,12.81
2018-10-18T01:59:43.222Z,12.87
2018-10-18T02:02:11.677Z,12.94
2018-10-18T02:04:40.141Z,12.97
2018-10-18T02:07:08.591Z,13.03
2018-10-18T02:09:37.022Z,13.04
2018-10-18T02:12:06.405Z,13.07
2018-10-18T02:14:34.725Z,13.11
2018-10-18T02:17:03.153Z,13.14
2018-10-18T02:19:31.670Z,13.15
2018-10-18T02:22:00.078Z,13.21
2018-10-18T02:24:28.518Z,13.25
2018-10-18T02:26:56.914Z,13.27
2018-10-18T02:29:25.373Z,13.29
2018-10-18T02:31:53.822Z,13.31
2018-10-18T02:34:22.213Z,13.31
2018-10-18T02:36:50.651Z,13.29
2018-10-18T02:39:19.106Z,13.37
2018-10-18T02:41:47.543Z,13.35
2018-10-18T02:44:16.073Z,13.38
2018-10-18T02:46:44.474Z,13.38
2018-10-18T02:49:12.901Z,13.37
2018-10-18T02:51:41.325Z,13.41
2018-10-18T02:54:09.879Z,13.39
2018-10-18T02:56:38.221Z,13.44
2018-10-18T02:59:06.718Z,13.43
2018-10-18T03:01:35.158Z,13.47
2018-10-18T03:04:03.599Z,13.49
2018-10-18T03:06:32.041Z,13.52
2018-10-18T03:09:00.573Z,13.52
2018-10-18T03:11:29.022Z,13.50
2018-10-18T03:13:57.754Z,13.53
2018-10-18T03:16:26.162Z,13.52
2018-10-18T03:18:54.669Z,13.52
2018-10-18T03:21:23.075Z,13.52
2018-10-18T03:23:51.532Z,13.56
2018-10-18T03:26:19.948Z,13.55
2018-10-18T03:28:48.403Z,13.60
2018-10-18T03:31:16.923Z,13.61
2018-10-18T03:33:45.310Z,13.62
2018-10-18T03:36:13.829Z,13.60
2018-10-18T03:38:42.175Z,13.62
2018-10-18T03:41:10.616Z,13.60
2018-10-18T03:43:39.045Z,13.57
2018-10-18T03:46:07.469Z,13.60
2018-10-18T03:48:35.942Z,13.62
2018-10-18T03:51:04.367Z,13.59
2018-10-18T03:53:32.821Z,13.64
2018-10-18T03:56:01.277Z,13.62
2018-10-18T03:58:29.677Z,13.69
2018-10-18T04:00:58.083Z,13.72
2018-10-18T04:03:26.589Z,13.73
2018-10-18T04:05:55.140Z,13.70
2018-10-18T04:08:23.542Z,13.64
2018-10-18T04:10:51.974Z,13.67
2018-10-18T04:13:20.452Z,13.80
2018-10-18T04:15:48.869Z,13.84
2018-10-18T04:18:17.266Z,13.81
2018-10-18T04:20:45.690Z,13.79
2018-10-18T04:23:18.242Z,13.83
2018-10-18T04:25:46.681Z,13.92
2018-10-18T04:28:15.046Z,14.03
2018-10-18T04:30:43.449Z,14.01
2018-10-18T04:33:11.822Z,14.04
2018-10-18T04:35:40.261Z,14.02
2018-10-18T04:38:08.682Z,13.98
2018-10-18T04:40:37.107Z,14.03
2018-10-18T04:43:05.906Z,14.06
2018-10-18T04:45:34.337Z,14.06
2018-10-18T04:48:02.909Z,14.05
2018-10-18T04:50:31.204Z,14.08
2018-10-18T04:52:59.575Z,14.11
2018-10-18T04:55:28.043Z,14.16
2018-10-18T04:57:56.444Z,14.19
2018-10-18T05:00:25.220Z,14.21
2018-10-18T05:02:53.666Z,14.21
2018-10-18T05:06:02.243Z,14.14
2018-10-18T05:08:30.906Z,14.09
2018-10-18T05:10:59.329Z,14.10
2018-10-18T05:13:27.869Z,14.04
2018-10-18T05:15:56.268Z,14.06
2018-10-18T05:18:24.994Z,14.05
2018-10-18T05:20:53.398Z,14.02
2018-10-18T05:23:21.833Z,13.97
2018-10-18T05:25:50.861Z,13.95
2018-10-18T05:28:19.462Z,13.94
2018-10-18T05:30:47.917Z,13.97
2018-10-18T05:33:16.301Z,13.91
2018-10-18T05:35:44.757Z,13.94
2018-10-18T05:38:13.150Z,13.95
2018-10-18T05:40:41.545Z,13.92
2018-10-18T05:43:10.029Z,13.91
2018-10-18T05:45:38.409Z,13.88
2018-10-18T05:48:07.402Z,13.90
2018-10-18T05:50:35.828Z,13.88
2018-10-18T05:53:04.303Z,13.84
2018-10-18T05:55:32.710Z,13.87
2018-10-18T05:58:01.080Z,13.86
2018-10-18T06:00:29.515Z,13.84
2018-10-18T06:02:57.938Z,13.84
2018-10-18T06:05:26.357Z,13.87
2018-10-18T06:07:54.749Z,13.86
2018-10-18T06:10:34.521Z,13.88
2018-10-18T06:13:02.890Z,13.88
2018-10-18T06:15:31.254Z,13.93
2018-10-18T06:17:59.664Z,13.95
2018-10-18T06:20:28.107Z,13.94
2018-10-18T06:22:57.724Z,13.92
2018-10-18T06:25:25.981Z,13.93
2018-10-18T06:27:54.389Z,13.93
2018-10-18T06:30:22.769Z,13.95
2018-10-18T06:32:51.204Z,13.97
2018-10-18T06:35:19.633Z,14.00
2018-10-18T06:37:48.157Z,13.98
2018-10-18T06:40:17.820Z,14.05
2018-10-18T06:42:46.248Z,14.08
2018-10-18T06:45:16.059Z,14.06
2018-10-18T06:47:44.844Z,14.10
2018-10-18T06:50:20.548Z,14.11
2018-10-18T06:52:49.078Z,14.14
2018-10-18T06:55:17.605Z,14.12
2018-10-18T06:58:18.409Z,14.13
2018-10-18T07:00:46.829Z,14.12
2018-10-18T07:03:15.322Z,14.08
2018-10-18T07:05:43.717Z,14.09
2018-10-18T07:08:12.180Z,14.09
2018-10-18T07:10:40.609Z,14.08
2018-10-18T07:13:09.046Z,14.06
2018-10-18T07:15:37.589Z,14.09
2018-10-18T07:18:06.195Z,14.07
2018-10-18T07:20:34.529Z,14.12
2018-10-18T07:23:02.966Z,14.14
2018-10-18T07:25:31.326Z,14.20
2018-10-18T07:27:59.774Z,14.22
2018-10-18T07:30:28.177Z,14.26
2018-10-18T07:32:57.253Z,14.29
2018-10-18T07:35:25.880Z,14.32
2018-10-18T07:37:54.347Z,14.43
2018-10-18T07:40:22.818Z,14.53
2018-10-18T07:42:51.336Z,14.59
2018-10-18T07:45:19.719Z,14.60
2018-10-18T07:47:49.003Z,14.60
2018-10-18T07:55:53.826Z,14.69
2018-10-18T07:58:22.379Z,14.64
2018-10-18T08:00:51.033Z,14.64
2018-10-18T08:03:19.444Z,14.53
2018-10-18T08:05:47.818Z,14.70
2018-10-18T08:08:16.228Z,14.75
2018-10-18T08:10:44.614Z,14.89
2018-10-18T08:13:13.305Z,14.90
2018-10-18T08:15:41.613Z,15.15
2018-10-18T08:18:10.250Z,15.21
2018-10-18T08:20:38.890Z,15.32
2018-10-18T08:23:07.494Z,15.37
2018-10-18T08:25:36.122Z,15.51
2018-10-18T08:28:04.577Z,15.45
2018-10-18T08:30:33.001Z,15.71
2018-10-18T08:33:01.458Z,15.64
2018-10-18T08:35:29.862Z,15.61
2018-10-18T08:37:58.668Z,15.60
2018-10-18T08:40:27.033Z,15.82
2018-10-18T08:42:55.486Z,16.06
2018-10-18T08:45:23.977Z,16.36
2018-10-18T08:47:52.478Z,16.49
2018-10-18T08:50:20.938Z,16.56
2018-10-18T08:52:55.408Z,16.43
2018-10-18T08:55:24.678Z,16.45
2018-10-18T08:57:53.511Z,16.58
2018-10-18T09:00:22.674Z,16.49
2018-10-18T09:02:51.255Z,16.45
2018-10-18T09:05:21.925Z,16.50
2018-10-18T09:07:52.030Z,16.46
2018-10-18T09:10:22.299Z,16.48
2018-10-18T09:12:50.728Z,16.50
2018-10-18T09:15:19.890Z,16.54
2018-10-18T09:17:49.304Z,16.43
2018-10-18T09:20:20.102Z,16.51
2018-10-18T09:22:50.778Z,16.48
2018-10-18T09:25:19.351Z,16.50
2018-10-18T09:27:47.905Z,16.42
2018-10-18T09:30:17.321Z,16.26
2018-10-18T09:32:46.845Z,16.25
2018-10-18T09:35:15.948Z,16.15
2018-10-18T09:37:44.945Z,16.04
2018-10-18T09:40:13.490Z,15.98
2018-10-18T09:42:41.905Z,16.04
2018-10-18T09:45:12.362Z,16.08
2018-10-18T09:47:44.457Z,16.06
2018-10-18T09:50:15.778Z,16.17
2018-10-18T09:52:46.825Z,16.23
2018-10-18T09:55:15.974Z,16.28
2018-10-18T09:57:44.283Z,16.31
2018-10-18T10:00:18.050Z,16.47
2018-10-18T10:02:49.522Z,16.57
2018-10-18T10:05:18.146Z,16.61
2018-10-18T10:07:46.816Z,16.81
2018-10-18T10:10:15.214Z,16.71
2018-10-18T10:12:50.209Z,16.82
2018-10-18T10:15:18.640Z,16.83
2018-10-18T10:17:47.204Z,16.89
2018-10-18T10:20:15.551Z,16.80
2018-10-18T10:22:43.994Z,16.77
2018-10-18T10:25:12.510Z,16.85
2018-10-18T10:27:40.858Z,16.67
2018-10-18T10:30:09.754Z,16.53
2018-10-18T10:32:38.166Z,16.59
2018-10-18T10:35:08.096Z,16.59
2018-10-18T10:37:36.589Z,16.68
2018-10-18T10:40:05.997Z,16.70
2018-10-18T10:42:34.382Z,16.56
2018-10-18T10:45:02.898Z,16.59
2018-10-18T10:47:38.425Z,16.48
2018-10-18T10:50:07.416Z,16.48
2018-10-18T10:52:36.298Z,16.32
2018-10-18T10:55:05.015Z,16.47
2018-10-18T10:57:35.453Z,16.31
2018-10-18T11:00:04.052Z,16.33
2018-10-18T11:02:32.442Z,16.34
2018-10-18T11:05:00.842Z,16.48
2018-10-18T11:07:29.406Z,16.53
2018-10-18T11:09:58.028Z,16.73
2018-10-18T11:12:26.454Z,16.67
2018-10-18T11:14:54.852Z,16.78
2018-10-18T11:17:23.250Z,16.92
2018-10-18T11:19:51.743Z,16.95
2018-10-18T11:22:20.137Z,16.96
2018-10-18T11:24:48.639Z,16.68
2018-10-18T11:27:16.990Z,16.84
2018-10-18T11:29:45.397Z,16.96
2018-10-18T11:32:17.271Z,17.16
2018-10-18T11:34:45.628Z,17.04
2018-10-18T11:37:14.333Z,17.25
2018-10-18T11:39:42.765Z,17.28
2018-10-18T11:42:11.255Z,17.24
2018-10-18T11:44:41.797Z,17.40
2018-10-18T11:47:12.424Z,17.52
2018-10-18T11:49:41.483Z,17.57
2018-10-18T11:52:09.895Z,17.39
2018-10-18T11:54:38.309Z,17.64
2018-10-18T11:57:06.735Z,17.84
2018-10-18T11:59:35.166Z,17.95
2018-10-18T12:02:03.790Z,17.96
2018-10-18T12:04:32.178Z,18.00
2018-10-18T12:07:00.577Z,17.90
2018-10-18T12:09:28.990Z,17.76
2018-10-18T12:11:57.385Z,17.88
2018-10-18T12:14:25.849Z,18.08
2018-10-18T12:16:54.292Z,18.26
2018-10-18T12:19:22.721Z,17.92
2018-10-18T12:21:56.702Z,18.01
2018-10-18T12:24:25.153Z,17.81
2018-10-18T12:26:53.630Z,17.88
2018-10-18T12:29:22.051Z,17.58
2018-10-18T12:31:51.919Z,17.43
2018-10-18T12:34:20.362Z,17.28
2018-10-18T12:36:48.776Z,17.23
2018-10-18T12:39:17.230Z,17.42
2018-10-18T12:41:45.766Z,17.35
2018-10-18T12:44:14.248Z,17.39
2018-10-18T12:46:43.056Z,17.40
2018-10-18T12:49:12.467Z,17.37
2018-10-18T12:51:40.881Z,17.48
2018-10-18T12:54:09.623Z,17.48
2018-10-18T12:56:38.076Z,17.45
2018-10-18T12:59:06.513Z,17.42
2018-10-18T13:01:34.933Z,17.28
2018-10-18T13:04:03.421Z,17.17
2018-10-18T13:06:31.858Z,17.34
2018-10-18T13:09:00.263Z,17.73
2018-10-18T13:11:28.686Z,17.93
2018-10-18T13:13:57.114Z,18.60
2018-10-18T13:16:25.561Z,19.07
2018-10-18T13:18:54.011Z,19.20
2018-10-18T13:21:22.430Z,19.56
2018-10-18T13:23:50.907Z,19.61
2018-10-18T13:26:19.443Z,20.05
2018-10-18T13:28:47.829Z,20.58
2018-10-18T13:31:16.525Z,20.58
2018-10-18T13:33:45.101Z,21.05
2018-10-18T13:36:13.733Z,20.72
2018-10-18T13:38:42.201Z,20.71
2018-10-18T13:41:10.692Z,20.94
2018-10-18T13:43:39.144Z,21.21
2018-10-18T13:46:07.615Z,21.56
2018-10-18T13:48:36.026Z,21.33
2018-10-18T13:51:05.334Z,20.52
2018-10-18T13:53:38.533Z,19.98
2018-10-18T13:56:07.104Z,19.16
2018-10-18T13:58:35.554Z,18.29
2018-10-18T14:01:04.001Z,18.21
2018-10-18T14:03:32.415Z,17.96
2018-10-18T14:06:00.909Z,17.78
2018-10-18T14:08:29.490Z,17.63
2018-10-18T14:10:57.793Z,17.65
2018-10-18T14:13:26.346Z,17.62
2018-10-18T14:15:54.839Z,17.65
2018-10-18T14:18:23.357Z,17.61
2018-10-18T14:20:51.905Z,17.63
2018-10-18T14:23:20.489Z,17.65
2018-10-18T14:25:48.818Z,17.51
2018-10-18T14:28:17.233Z,17.47
2018-10-18T14:30:45.699Z,17.57
2018-10-18T14:33:14.086Z,17.65
2018-10-18T14:35:42.514Z,17.61
2018-10-18T14:38:11.013Z,17.60
2018-10-18T14:40:39.400Z,17.62
2018-10-18T14:43:07.800Z,17.60
2018-10-18T14:45:37.249Z,17.57
2018-10-18T14:48:06.701Z,17.82
2018-10-18T14:50:35.308Z,17.78
2018-10-18T14:53:03.583Z,17.88
2018-10-18T14:55:32.266Z,17.94
2018-10-18T14:58:00.723Z,17.96
2018-10-18T15:00:29.144Z,18.02
2018-10-18T15:02:58.307Z,17.96
2018-10-18T15:05:26.691Z,18.02
2018-10-18T15:07:55.122Z,17.87
2018-10-18T15:10:23.585Z,17.78
2018-10-18T15:12:52.645Z,17.79
2018-10-18T15:15:21.030Z,17.97
2018-10-18T15:17:50.038Z,17.83
2018-10-18T15:20:18.486Z,17.75
2018-10-18T15:22:46.946Z,17.70
2018-10-18T15:25:16.076Z,17.86
2018-10-18T15:27:44.608Z,17.83
2018-10-18T15:30:13.488Z,17.62
2018-10-18T15:32:41.892Z,17.59
2018-10-18T15:35:11.297Z,17.66
2018-10-18T15:37:40.349Z,17.77
2018-10-18T15:40:08.966Z,17.67
2018-10-18T15:42:38.057Z,17.73
2018-10-18T15:45:07.270Z,17.67
2018-10-18T15:47:35.708Z,17.55
2018-10-18T15:50:04.563Z,17.57
2018-10-18T15:52:33.207Z,17.46
2018-10-18T15:55:01.637Z,17.39
2018-10-18T15:57:30.350Z,17.49
2018-10-18T15:59:59.779Z,17.31
2018-10-18T16:02:28.289Z,17.23
2018-10-18T16:04:57.679Z,17.08
2018-10-18T16:07:26.302Z,16.89
2018-10-18T16:09:54.707Z,16.75
2018-10-18T16:12:23.128Z,16.63
2018-10-18T16:14:51.597Z,16.57
2018-10-18T16:17:20.213Z,16.38
2018-10-18T16:19:48.595Z,16.23
2018-10-18T16:22:17.042Z,16.02
2018-10-18T16:24:45.454Z,15.94
2018-10-18T16:27:13.945Z,15.98
2018-10-18T16:29:42.568Z,15.86
2018-10-18T16:32:11.915Z,15.68
2018-10-18T16:34:40.645Z,15.51
2018-10-18T16:37:10.049Z,15.31
2018-10-18T16:39:38.692Z,15.20
2018-10-18T16:42:07.198Z,15.15
2018-10-18T16:44:35.574Z,15.12
2018-10-18T16:47:03.973Z,15.09
2018-10-18T16:49:32.435Z,15.04
2018-10-18T16:52:00.901Z,14.96
2018-10-18T16:54:29.311Z,14.84
2018-10-18T16:56:57.681Z,14.80
2018-10-18T16:59:26.130Z,14.77
2018-10-18T17:01:54.546Z,14.76
2018-10-18T17:04:23.217Z,14.90
2018-10-18T17:06:51.572Z,15.18
2018-10-18T17:09:23.428Z,15.21
2018-10-18T17:11:53.444Z,15.13
2018-10-18T17:14:21.937Z,15.03
2018-10-18T17:16:51.606Z,14.93
2018-10-18T17:19:20.033Z,14.81
2018-10-18T17:21:48.419Z,14.75
2018-10-18T17:24:17.813Z,14.71
2018-10-18T17:26:46.210Z,14.58
2018-10-18T17:29:14.714Z,14.54
2018-10-18T17:31:44.345Z,14.47
2018-10-18T17:34:12.957Z,14.51
2018-10-18T17:36:41.359Z,14.50
2018-10-18T17:39:14.534Z,14.48
2018-10-18T17:41:43.118Z,14.42
2018-10-18T17:44:12.779Z,14.40
2018-10-18T17:46:41.147Z,14.30
2018-10-18T17:49:09.786Z,14.20
2018-10-18T17:51:41.525Z,14.20
2018-10-18T17:54:12.256Z,14.14
2018-10-18T17:56:45.033Z,14.11
2018-10-18T17:59:13.731Z,14.05
2018-10-18T18:01:42.745Z,13.88
2018-10-18T18:04:11.350Z,13.96
2018-10-18T18:06:39.876Z,13.93
2018-10-18T18:09:08.849Z,14.00
2018-10-18T18:11:37.923Z,13.92
2018-10-18T18:14:06.894Z,13.79
2018-10-18T18:16:36.312Z,13.72
2018-10-18T18:19:05.035Z,13.65
2018-10-18T18:21:34.047Z,13.57
2018-10-18T18:24:02.694Z,13.51
2018-10-18T18:26:45.074Z,13.53
2018-10-18T18:29:02.310Z,13.54
2018-10-18T18:31:31.220Z,13.51
2018-10-18T18:34:07.578Z,13.52
2018-10-18T18:36:36.416Z,13.43
2018-10-18T18:39:07.138Z,13.45
2018-10-18T18:41:36.034Z,13.38
2018-10-18T18:44:05.984Z,13.39
2018-10-18T18:46:34.671Z,13.38
2018-10-18T18:49:12.806Z,13.33
2018-10-18T18:51:41.750Z,13.21
2018-10-18T18:54:11.079Z,13.12
2018-10-18T18:56:40.102Z,12.94
2018-10-18T18:59:08.542Z,12.88
2018-10-18T19:01:37.277Z,12.91
2018-10-18T19:04:11.194Z,12.96
2018-10-18T19:06:43.490Z,13.01
2018-10-18T19:09:17.394Z,13.01
2018-10-18T19:11:46.197Z,12.96
2018-10-18T19:14:17.285Z,12.84
2018-10-18T19:16:46.111Z,12.84
2018-10-18T19:19:14.926Z,12.80
2018-10-18T19:21:43.979Z,12.72
2018-10-18T19:24:15.738Z,12.68
2018-10-18T19:26:45.365Z,12.72
2018-10-18T19:29:14.797Z,12.73
2018-10-18T19:31:45.439Z,12.68
2018-10-18T19:34:15.213Z,12.64
2018-10-18T19:39:53.875Z,12.57
2018-10-18T19:42:23.098Z,12.53
2018-10-18T19:44:58.121Z,12.48
2018-10-18T19:47:27.074Z,12.44
2018-10-18T19:49:55.860Z,12.40
2018-10-18T19:52:25.280Z,12.44
2018-10-18T19:54:54.007Z,12.42
2018-10-18T19:57:22.772Z,12.45
2018-10-18T19:59:51.670Z,12.33
2018-10-18T20:02:20.467Z,12.22
2018-10-18T20:04:49.182Z,12.25
2018-10-18T20:07:18.003Z,12.41
2018-10-18T20:09:46.904Z,12.37
2018-10-18T20:12:15.894Z,12.30
2018-10-18T20:14:44.883Z,12.26
2018-10-18T20:17:14.098Z,12.19
2018-10-18T20:19:42.885Z,12.23
2018-10-18T20:22:15.660Z,12.26
2018-10-18T20:24:44.516Z,12.17
2018-10-18T20:27:14.013Z,11.99
2018-10-18T20:29:42.927Z,11.87
2018-10-18T20:32:11.794Z,11.77
2018-10-18T20:34:40.587Z,11.75
2018-10-18T20:37:09.824Z,11.77
2018-10-18T20:39:38.688Z,11.69
2018-10-18T20:42:07.942Z,11.58
2018-10-18T20:44:36.787Z,11.55
2018-10-18T20:47:05.666Z,11.40
2018-10-18T20:49:34.742Z,11.45
2018-10-18T20:52:03.554Z,11.37
2018-10-18T20:54:32.206Z,11.42
2018-10-18T20:57:01.012Z,11.42
2018-10-18T20:59:30.025Z,11.20
2018-10-18T21:01:58.647Z,11.05
2018-10-18T21:04:27.402Z,11.01
2018-10-18T21:06:56.420Z,10.94
2018-10-18T21:09:25.298Z,10.93
2018-10-18T21:11:53.932Z,10.83
2018-10-18T21:14:23.290Z,10.78
2018-10-18T21:16:52.491Z,10.71
2018-10-18T21:19:21.199Z,10.79
2018-10-18T21:21:50.141Z,10.62
2018-10-18T21:24:18.832Z,10.49
2018-10-18T21:26:47.430Z,10.49
2018-10-18T21:29:16.240Z,10.39
2018-10-18T21:31:44.893Z,10.24
2018-10-18T21:34:15.155Z,10.44
2018-10-18T21:36:44.188Z,10.50
2018-10-18T21:39:12.999Z,10.55
2018-10-18T21:41:41.798Z,10.59
2018-10-18T21:44:11.398Z,10.57
2018-10-18T21:46:40.358Z,10.51
2018-10-18T21:49:22.751Z,10.52
2018-10-18T21:51:54.894Z,10.53
2018-10-18T21:54:24.690Z,10.49
2018-10-18T21:56:53.169Z,10.47
2018-10-18T21:59:21.642Z,10.35
2018-10-18T22:01:50.130Z,10.50
2018-10-18T22:04:18.708Z,10.41
2018-10-18T22:06:48.256Z,10.43
2018-10-18T22:09:17.224Z,10.39
2018-10-18T22:11:45.795Z,10.41
2018-10-18T22:14:14.893Z,10.20
2018-10-18T22:16:44.165Z,10.18
2018-10-18T22:19:19.266Z,10.12
2018-10-18T22:21:48.005Z,10.11
2018-10-18T22:24:17.220Z,10.09
2018-10-18T22:26:46.193Z,10.04
2018-10-18T22:29:14.745Z,9.99
2018-10-18T22:31:43.197Z,10.00
2018-10-18T22:34:11.669Z,9.94
2018-10-18T22:36:40.327Z,9.85
2018-10-18T22:39:10.212Z,9.80
2018-10-18T22:41:38.653Z,9.77
2018-10-18T22:44:07.814Z,9.72
2018-10-18T22:46:37.026Z,9.82
2018-10-18T22:49:05.875Z,9.84
2018-10-18T22:51:34.950Z,9.88
2018-10-18T22:54:03.902Z,9.86
2018-10-18T22:56:32.956Z,9.78
2018-10-18T22:59:01.970Z,9.77
2018-10-18T23:01:30.975Z,9.75
2018-10-18T23:03:59.869Z,9.75
2018-10-18T23:06:28.721Z,9.72
2018-10-18T23:08:58.749Z,9.75
2018-10-18T23:11:27.407Z,9.78
2018-10-18T23:13:56.217Z,9.87
2018-10-18T23:16:25.112Z,9.89
2018-10-18T23:18:54.313Z,9.83
2018-10-18T23:21:22.944Z,9.90
2018-10-18T23:23:51.786Z,9.89
2018-10-18T23:26:20.563Z,9.83
2018-10-18T23:28:49.235Z,9.87
2018-10-18T23:31:18.165Z,9.87
2018-10-18T23:33:46.818Z,9.83
2018-10-18T23:36:15.728Z,9.77
2018-10-18T23:38:44.360Z,9.71
2018-10-18T23:41:13.212Z,9.65
2018-10-18T23:43:41.831Z,9.57
2018-10-18T23:46:10.719Z,9.59
2018-10-18T23:48:39.758Z,9.51
2018-10-18T23:51:08.565Z,9.31
2018-10-18T23:53:37.707Z,9.33
2018-10-18T23:56:06.490Z,9.42
2018-10-18T23:58:35.283Z,9.44
